createdAt,value
2017-11-28T00:03:47.109Z,98290.12
2017-11-28T00:09:51.720Z,98287.59
2017-11-28T00:15:55.400Z,98290.46
2017-11-28T00:21:58.930Z,98283.40
2017-11-28T00:28:02.452Z,98298.47
2017-11-28T00:34:06.755Z,98298.84
2017-11-28T00:40:10.294Z,98299.08
2017-11-28T00:46:13.804Z,98320.12
2017-11-28T00:52:17.322Z,98326.20
2017-11-28T00:58:21.118Z,98327.02
2017-11-28T01:04:25.116Z,98336.17
2017-11-28T01:10:28.855Z,98346.60
2017-11-28T01:16:32.476Z,98341.86
2017-11-28T01:22:36.056Z,98342.98
2017-11-28T01:28:39.572Z,98356.59
2017-11-28T01:34:43.252Z,98359.06
2017-11-28T01:40:46.930Z,98346.80
2017-11-28T01:46:51.195Z,98344.11
2017-11-28T01:52:54.795Z,98337.11
2017-11-28T01:58:59.332Z,98335.78
2017-11-28T02:05:02.849Z,98338.77
2017-11-28T02:11:06.370Z,98333.56
2017-11-28T02:17:09.889Z,98345.84
2017-11-28T02:23:13.570Z,98351.77
2017-11-28T02:29:17.922Z,98329.76
2017-11-28T02:35:21.870Z,98323.63
2017-11-28T02:41:26.105Z,98328.47
2017-11-28T02:47:29.635Z,98318.81
2017-11-28T02:53:34.050Z,98308.34
2017-11-28T02:59:37.742Z,98307.80
2017-11-28T03:05:41.267Z,98295.93
2017-11-28T03:11:44.761Z,98297.88
2017-11-28T03:17:48.288Z,98297.77
2017-11-28T03:24:25.361Z,98301.54
2017-11-28T03:30:35.090Z,98300.27
2017-11-28T03:36:39.458Z,98294.67
2017-11-28T03:42:44.017Z,98302.00
2017-11-28T03:49:09.233Z,98301.37
2017-11-28T03:55:12.804Z,98293.95
2017-11-28T04:01:16.305Z,98282.16
2017-11-28T04:07:21.277Z,98263.82
2017-11-28T04:13:24.888Z,98259.69
2017-11-28T04:19:28.584Z,98251.02
2017-11-28T04:25:32.199Z,98244.54
2017-11-28T04:31:35.707Z,98247.41
2017-11-28T04:37:39.261Z,98256.42
2017-11-28T04:43:42.789Z,98264.06
2017-11-28T04:49:46.340Z,98267.52
2017-11-28T04:55:49.873Z,98280.36
2017-11-28T05:01:53.587Z,98254.74
2017-11-28T05:07:58.225Z,98246.13
2017-11-28T05:14:01.762Z,98238.45
2017-11-28T05:20:05.495Z,98238.69
2017-11-28T05:26:09.792Z,98249.86
2017-11-28T05:32:13.670Z,98245.57
2017-11-28T05:38:17.220Z,98247.20
2017-11-28T05:44:20.887Z,98243.91
2017-11-28T05:50:24.938Z,98239.20
2017-11-28T05:56:28.518Z,98240.33
2017-11-28T06:02:32.117Z,98250.78
2017-11-28T06:08:36.399Z,98243.25
2017-11-28T06:14:40.750Z,98243.05
2017-11-28T06:20:44.269Z,98246.22
2017-11-28T06:26:47.896Z,98257.30
2017-11-28T06:32:51.503Z,98252.29
2017-11-28T06:38:55.262Z,98253.31
2017-11-28T06:44:59.033Z,98251.60
2017-11-28T06:51:03.312Z,98266.33
2017-11-28T06:57:07.636Z,98276.25
2017-11-28T07:03:11.209Z,98277.17
2017-11-28T07:09:14.722Z,98270.09
2017-11-28T07:15:19.048Z,98277.34
2017-11-28T07:21:22.931Z,98277.34
2017-11-28T07:27:27.285Z,98280.11
2017-11-28T07:33:30.808Z,98279.08
2017-11-28T07:39:34.392Z,98276.32
2017-11-28T07:45:37.928Z,98279.83
2017-11-28T07:51:41.592Z,98290.98
2017-11-28T07:57:45.488Z,98288.77
2017-11-28T08:03:49.963Z,98287.84
2017-11-28T08:09:54.444Z,98291.56
2017-11-28T08:15:58.163Z,98293.84
2017-11-28T08:22:01.735Z,98290.70
2017-11-28T08:28:05.485Z,98284.02
2017-11-28T08:34:09.383Z,98292.69
2017-11-28T08:40:12.943Z,98295.04
2017-11-28T08:46:16.485Z,98290.47
2017-11-28T08:52:20.044Z,98307.41
2017-11-28T08:58:24.258Z,98309.80
2017-11-28T09:10:56.994Z,98303.22
2017-11-28T09:17:00.683Z,98303.45
2017-11-28T09:23:04.500Z,98303.25
2017-11-28T09:29:08.290Z,98303.25
2017-11-28T09:35:12.220Z,98306.83
2017-11-28T09:41:15.804Z,98306.14
2017-11-28T09:47:19.706Z,98291.22
2017-11-28T09:53:23.221Z,98287.79
2017-11-28T09:59:27.095Z,98284.05
2017-11-28T10:05:30.721Z,98285.00
2017-11-28T10:11:34.258Z,98288.50
2017-11-28T10:17:37.971Z,98289.25
2017-11-28T10:23:41.850Z,98292.67
2017-11-28T10:29:45.446Z,98285.52
2017-11-28T10:35:49.031Z,98287.06
2017-11-28T10:41:53.151Z,98284.09
2017-11-28T10:47:57.831Z,98277.52
2017-11-28T10:54:01.455Z,98278.72
2017-11-28T11:00:05.363Z,98273.91
2017-11-28T11:06:08.998Z,98273.55
2017-11-28T11:12:12.682Z,98271.24
2017-11-28T11:18:16.447Z,98267.55
2017-11-28T11:24:20.474Z,98272.83
2017-11-28T11:30:24.524Z,98270.94
2017-11-28T11:36:28.094Z,98265.64
2017-11-28T11:42:32.504Z,98257.66
2017-11-28T11:48:36.094Z,98262.72
2017-11-28T11:54:39.820Z,98257.92
2017-11-28T12:00:43.483Z,98252.34
2017-11-28T12:06:47.020Z,98241.17
2017-11-28T12:12:51.200Z,98234.90
2017-11-28T12:18:55.628Z,98238.97
2017-11-28T12:24:59.325Z,98243.23
2017-11-28T12:31:02.957Z,98238.33
2017-11-28T12:37:07.247Z,98232.77
2017-11-28T12:43:10.790Z,98245.67
2017-11-28T12:49:15.143Z,98246.74
2017-11-28T12:55:19.180Z,98249.55
2017-11-28T13:01:23.977Z,98238.36
2017-11-28T13:07:27.821Z,98243.48
2017-11-28T13:13:31.375Z,98240.73
2017-11-28T13:19:35.079Z,98249.80
2017-11-28T13:32:15.183Z,98248.56
2017-11-28T13:38:18.811Z,98253.45
2017-11-28T13:44:23.027Z,98254.79
2017-11-28T13:50:26.659Z,98251.31
2017-11-28T13:56:31.098Z,98249.59
2017-11-28T14:02:34.724Z,98249.25
2017-11-28T14:08:38.348Z,98243.32
2017-11-28T14:14:42.965Z,98256.63
2017-11-28T14:20:52.250Z,98254.48
2017-11-28T14:27:01.669Z,98255.94
2017-11-28T14:33:07.845Z,98254.41
2017-11-28T14:39:22.143Z,98251.92
2017-11-28T14:45:29.749Z,98256.81
2017-11-28T14:51:38.835Z,98258.63
2017-11-28T14:57:42.845Z,98258.69
2017-11-28T15:03:52.793Z,98262.89
2017-11-28T15:10:01.929Z,98261.15
2017-11-28T15:22:59.134Z,98266.86
2017-11-28T15:29:05.951Z,98263.91
2017-11-28T15:35:10.250Z,98267.47
2017-11-28T15:41:13.921Z,98262.92
2017-11-28T15:47:17.626Z,98267.76
2017-11-28T15:53:21.789Z,98268.25
2017-11-28T15:59:25.645Z,98276.08
2017-11-28T16:05:30.870Z,98281.95
2017-11-28T16:11:35.901Z,98280.20
2017-11-28T16:17:39.446Z,98283.80
2017-11-28T16:23:42.992Z,98284.70
2017-11-28T16:29:46.557Z,98280.63
2017-11-28T16:35:50.377Z,98284.75
2017-11-28T16:41:55.029Z,98293.59
2017-11-28T16:47:58.572Z,98296.28
2017-11-28T16:54:02.128Z,98286.17
2017-11-28T17:00:05.679Z,98285.30
2017-11-28T17:06:09.347Z,98284.42
2017-11-28T17:12:12.908Z,98284.05
2017-11-28T17:18:17.272Z,98274.65
2017-11-28T17:24:20.868Z,98280.28
2017-11-28T17:30:26.146Z,98286.74
2017-11-28T17:36:30.627Z,98291.35
2017-11-28T17:42:34.176Z,98289.05
2017-11-28T17:48:37.824Z,98288.22
2017-11-28T17:54:41.546Z,98281.30
2017-11-28T18:00:45.096Z,98278.44
2017-11-28T18:06:48.751Z,98284.04
2017-11-28T18:12:53.617Z,98287.02
2017-11-28T18:18:57.513Z,98292.13
2017-11-28T18:25:01.262Z,98287.52
2017-11-28T18:31:05.045Z,98292.47
2017-11-28T18:37:09.542Z,98296.86
2017-11-28T18:43:13.115Z,98297.42
2017-11-28T18:49:16.730Z,98299.50
2017-11-28T18:55:20.413Z,98292.96
2017-11-28T19:01:24.929Z,98300.09
2017-11-28T19:07:28.532Z,98303.06
2017-11-28T19:13:32.097Z,98316.63
2017-11-28T19:19:35.644Z,98323.89
2017-11-28T19:25:39.328Z,98321.23
2017-11-28T19:31:42.964Z,98313.27
2017-11-28T19:37:46.642Z,98313.48
2017-11-28T19:43:51.161Z,98308.03
2017-11-28T19:49:55.780Z,98307.82
2017-11-28T19:55:59.333Z,98309.37
2017-11-28T20:02:03.062Z,98302.08
2017-11-28T20:08:06.785Z,98303.33
2017-11-28T20:14:10.438Z,98303.80
2017-11-28T20:20:14.866Z,98310.20
2017-11-28T20:26:18.504Z,98307.70
2017-11-28T20:32:22.352Z,98306.78
2017-11-28T20:38:26.697Z,98304.83
2017-11-28T20:44:30.236Z,98304.90
2017-11-28T20:50:33.777Z,98300.97
2017-11-28T20:56:37.321Z,98294.54
2017-11-28T21:02:41.113Z,98287.41
2017-11-28T21:08:44.735Z,98292.66
2017-11-28T21:14:49.049Z,98296.90
2017-11-28T21:20:53.092Z,98292.43
2017-11-28T21:26:56.792Z,98296.13
2017-11-28T21:33:00.645Z,98288.84
2017-11-28T21:39:04.202Z,98272.39
2017-11-28T21:45:07.776Z,98271.16
2017-11-28T21:51:11.508Z,98254.34
2017-11-28T21:57:15.020Z,98260.42
2017-11-28T22:03:19.369Z,98267.59
2017-11-28T22:09:23.012Z,98268.01
2017-11-28T22:15:26.620Z,98269.00
2017-11-28T22:21:30.134Z,98274.00
2017-11-28T22:27:33.749Z,98277.34
2017-11-28T22:33:37.318Z,98284.04
2017-11-28T22:39:40.848Z,98291.88
2017-11-28T22:45:44.364Z,98285.31
2017-11-28T22:51:47.932Z,98287.12
2017-11-28T22:57:52.467Z,98287.84
2017-11-28T23:03:56.011Z,98287.88
2017-11-28T23:09:59.662Z,98289.08
2017-11-28T23:16:03.300Z,98285.83
2017-11-28T23:22:06.965Z,98292.20
2017-11-28T23:28:10.546Z,98283.27
2017-11-28T23:34:14.317Z,98298.19
2017-11-28T23:40:18.121Z,98293.30
2017-11-28T23:46:22.392Z,98296.59
2017-11-28T23:52:26.683Z,98294.03
2017-11-28T23:58:30.195Z,98300.16
